Weather at Aeródromo de Coja

Public forecast

Using degrees Celsius for public forecast. Weather courtesy of forecast.io.

Closest aviation weather report (METAR) to Aeródromo de Coja

Report is more than 2 hours old.

Closest report is Ovar Air Base, 49.2 nm (91.1 km) NW.

2024/07/14 19:00 (retrieved 2 hours ago)

LPOV 141900Z 18009KT 150V210 9999 FEW020 SCT028 20/19 Q1014

Closest aviation forecast (TAF) to Aeródromo de Coja

Closest forecast is Ovar Air Base, 49.2 nm (91.1 km) NW.

2024/07/14 20:12 Ammendment (retrieved 49 minutes ago)

TAF AMD TAF AMD LPOV 142009Z 1420/1518 CNL